sensor_id;sensor_type;location;lat;lon;timestamp;temperature;humidity
30473;DHT22;17263;48.160;11.452;2022-07-15T00:00:46;21.70;77.60
30473;DHT22;17263;48.160;11.452;2022-07-15T00:03:12;21.70;77.70
30473;DHT22;17263;48.160;11.452;2022-07-15T00:05:38;21.70;77.70
30473;DHT22;17263;48.160;11.452;2022-07-15T00:08:04;21.70;77.70
30473;DHT22;17263;48.160;11.452;2022-07-15T00:10:30;21.60;77.70
30473;DHT22;17263;48.160;11.452;2022-07-15T00:12:59;21.70;77.80
30473;DHT22;17263;48.160;11.452;2022-07-15T00:15:30;21.70;77.30
30473;DHT22;17263;48.160;11.452;2022-07-15T00:17:57;21.70;77.40
30473;DHT22;17263;48.160;11.452;2022-07-15T00:20:27;21.60;76.10
30473;DHT22;17263;48.160;11.452;2022-07-15T00:23:04;21.70;75.80
30473;DHT22;17263;48.160;11.452;2022-07-15T00:25:30;21.70;75.70
30473;DHT22;17263;48.160;11.452;2022-07-15T00:28:05;21.70;75.60
30473;DHT22;17263;48.160;11.452;2022-07-15T00:30:39;21.70;76.20
30473;DHT22;17263;48.160;11.452;2022-07-15T00:33:07;21.60;76.40
30473;DHT22;17263;48.160;11.452;2022-07-15T00:35:35;21.70;77.30
30473;DHT22;17263;48.160;11.452;2022-07-15T00:38:02;21.60;77.80
30473;DHT22;17263;48.160;11.452;2022-07-15T00:40:29;21.60;78.00
30473;DHT22;17263;48.160;11.452;2022-07-15T00:42:55;21.50;78.40
30473;DHT22;17263;48.160;11.452;2022-07-15T00:45:24;21.50;76.40
30473;DHT22;17263;48.160;11.452;2022-07-15T00:47:53;21.60;75.40
30473;DHT22;17263;48.160;11.452;2022-07-15T00:50:21;21.60;75.20
30473;DHT22;17263;48.160;11.452;2022-07-15T00:52:56;21.60;74.90
30473;DHT22;17263;48.160;11.452;2022-07-15T00:55:24;21.50;75.50
30473;DHT22;17263;48.160;11.452;2022-07-15T00:57:55;21.40;78.20
30473;DHT22;17263;48.160;11.452;2022-07-15T01:00:22;21.30;79.90
30473;DHT22;17263;48.160;11.452;2022-07-15T01:02:49;21.20;82.30
30473;DHT22;17263;48.160;11.452;2022-07-15T01:05:19;21.10;82.00
30473;DHT22;17263;48.160;11.452;2022-07-15T01:07:46;20.90;82.60
30473;DHT22;17263;48.160;11.452;2022-07-15T01:10:12;20.80;85.40
30473;DHT22;17263;48.160;11.452;2022-07-15T01:12:38;20.70;86.90
30473;DHT22;17263;48.160;11.452;2022-07-15T01:15:07;20.50;89.00
30473;DHT22;17263;48.160;11.452;2022-07-15T01:17:33;20.40;90.50
30473;DHT22;17263;48.160;11.452;2022-07-15T01:20:00;20.30;92.30
30473;DHT22;17263;48.160;11.452;2022-07-15T01:22:26;20.20;94.40
30473;DHT22;17263;48.160;11.452;2022-07-15T01:24:53;20.20;95.60
30473;DHT22;17263;48.160;11.452;2022-07-15T01:27:19;20.10;99.90
30473;DHT22;17263;48.160;11.452;2022-07-15T01:29:45;20.00;99.90
30473;DHT22;17263;48.160;11.452;2022-07-15T01:32:11;20.00;99.90
30473;DHT22;17263;48.160;11.452;2022-07-15T01:34:37;20.00;99.90
30473;DHT22;17263;48.160;11.452;2022-07-15T01:37:03;20.00;99.90
30473;DHT22;17263;48.160;11.452;2022-07-15T01:39:29;20.00;99.90
30473;DHT22;17263;48.160;11.452;2022-07-15T01:41:56;20.00;99.90
30473;DHT22;17263;48.160;11.452;2022-07-15T01:44:22;20.00;99.90
30473;DHT22;17263;48.160;11.452;2022-07-15T01:46:48;20.00;99.90
30473;DHT22;17263;48.160;11.452;2022-07-15T01:49:14;20.00;99.90
30473;DHT22;17263;48.160;11.452;2022-07-15T01:51:55;20.00;99.90
30473;DHT22;17263;48.160;11.452;2022-07-15T01:54:22;20.00;99.90
30473;DHT22;17263;48.160;11.452;2022-07-15T01:56:50;19.90;99.90
30473;DHT22;17263;48.160;11.452;2022-07-15T01:59:16;19.90;99.90
30473;DHT22;17263;48.160;11.452;2022-07-15T02:01:43;19.90;99.90
30473;DHT22;17263;48.160;11.452;2022-07-15T02:04:10;19.90;99.90
30473;DHT22;17263;48.160;11.452;2022-07-15T02:06:36;19.90;99.90
30473;DHT22;17263;48.160;11.452;2022-07-15T02:09:03;19.90;99.90
30473;DHT22;17263;48.160;11.452;2022-07-15T02:11:29;19.90;99.90
30473;DHT22;17263;48.160;11.452;2022-07-15T02:13:56;19.80;99.90
30473;DHT22;17263;48.160;11.452;2022-07-15T02:16:25;19.80;99.90
30473;DHT22;17263;48.160;11.452;2022-07-15T02:18:52;19.80;99.90
30473;DHT22;17263;48.160;11.452;2022-07-15T02:21:18;19.80;99.90
30473;DHT22;17263;48.160;11.452;2022-07-15T02:23:44;19.80;99.90
30473;DHT22;17263;48.160;11.452;2022-07-15T02:26:10;19.80;99.90
30473;DHT22;17263;48.160;11.452;2022-07-15T02:28:36;19.70;99.90
30473;DHT22;17263;48.160;11.452;2022-07-15T02:31:03;19.70;99.90
30473;DHT22;17263;48.160;11.452;2022-07-15T02:33:29;19.70;99.90
30473;DHT22;17263;48.160;11.452;2022-07-15T02:35:55;19.70;99.90
30473;DHT22;17263;48.160;11.452;2022-07-15T02:38:21;19.60;99.90
30473;DHT22;17263;48.160;11.452;2022-07-15T02:40:48;19.60;99.90
30473;DHT22;17263;48.160;11.452;2022-07-15T02:43:15;19.60;99.90
30473;DHT22;17263;48.160;11.452;2022-07-15T02:45:41;19.60;99.90
30473;DHT22;17263;48.160;11.452;2022-07-15T02:48:08;19.50;99.90
30473;DHT22;17263;48.160;11.452;2022-07-15T02:50:35;19.50;99.90
30473;DHT22;17263;48.160;11.452;2022-07-15T02:53:02;19.50;99.90
30473;DHT22;17263;48.160;11.452;2022-07-15T02:55:29;19.50;99.90
30473;DHT22;17263;48.160;11.452;2022-07-15T02:57:55;19.40;99.90
30473;DHT22;17263;48.160;11.452;2022-07-15T03:00:21;19.40;99.90
30473;DHT22;17263;48.160;11.452;2022-07-15T03:02:48;19.30;99.90
30473;DHT22;17263;48.160;11.452;2022-07-15T03:05:15;19.20;99.90
30473;DHT22;17263;48.160;11.452;2022-07-15T03:07:41;19.20;99.90
30473;DHT22;17263;48.160;11.452;2022-07-15T03:10:09;19.10;99.90
30473;DHT22;17263;48.160;11.452;2022-07-15T03:12:35;19.00;99.90
30473;DHT22;17263;48.160;11.452;2022-07-15T03:15:02;18.90;99.90
30473;DHT22;17263;48.160;11.452;2022-07-15T03:17:28;18.80;99.90
30473;DHT22;17263;48.160;11.452;2022-07-15T03:19:54;18.80;99.90
30473;DHT22;17263;48.160;11.452;2022-07-15T03:22:24;18.70;99.90
30473;DHT22;17263;48.160;11.452;2022-07-15T03:24:51;18.70;99.90
30473;DHT22;17263;48.160;11.452;2022-07-15T03:27:17;18.60;99.90
30473;DHT22;17263;48.160;11.452;2022-07-15T03:29:43;18.70;99.90
30473;DHT22;17263;48.160;11.452;2022-07-15T03:32:10;18.50;99.90
30473;DHT22;17263;48.160;11.452;2022-07-15T03:34:37;18.50;99.90
30473;DHT22;17263;48.160;11.452;2022-07-15T03:37:03;18.50;99.90
30473;DHT22;17263;48.160;11.452;2022-07-15T03:39:29;18.50;99.90
30473;DHT22;17263;48.160;11.452;2022-07-15T03:41:55;18.50;99.90
30473;DHT22;17263;48.160;11.452;2022-07-15T03:44:21;18.50;99.90
30473;DHT22;17263;48.160;11.452;2022-07-15T03:46:47;18.50;99.90
30473;DHT22;17263;48.160;11.452;2022-07-15T03:49:14;18.50;99.90
30473;DHT22;17263;48.160;11.452;2022-07-15T03:51:41;18.50;99.90
30473;DHT22;17263;48.160;11.452;2022-07-15T03:54:08;18.50;99.90
30473;DHT22;17263;48.160;11.452;2022-07-15T03:56:34;18.50;99.90
30473;DHT22;17263;48.160;11.452;2022-07-15T03:59:00;18.50;99.90
30473;DHT22;17263;48.160;11.452;2022-07-15T04:01:27;18.50;99.90
30473;DHT22;17263;48.160;11.452;2022-07-15T04:03:53;18.50;99.90
30473;DHT22;17263;48.160;11.452;2022-07-15T04:06:20;18.60;99.90
30473;DHT22;17263;48.160;11.452;2022-07-15T04:08:47;18.50;99.90
30473;DHT22;17263;48.160;11.452;2022-07-15T04:11:14;18.50;99.90
30473;DHT22;17263;48.160;11.452;2022-07-15T04:13:40;18.60;99.90
30473;DHT22;17263;48.160;11.452;2022-07-15T04:16:08;18.60;99.90
30473;DHT22;17263;48.160;11.452;2022-07-15T04:18:34;18.60;99.90
30473;DHT22;17263;48.160;11.452;2022-07-15T04:21:01;18.60;99.90
30473;DHT22;17263;48.160;11.452;2022-07-15T04:23:27;18.60;99.90
30473;DHT22;17263;48.160;11.452;2022-07-15T04:25:53;18.60;99.90
30473;DHT22;17263;48.160;11.452;2022-07-15T04:28:24;18.60;99.90
30473;DHT22;17263;48.160;11.452;2022-07-15T04:30:50;18.70;99.90
30473;DHT22;17263;48.160;11.452;2022-07-15T04:33:17;18.70;99.80
30473;DHT22;17263;48.160;11.452;2022-07-15T04:35:43;18.70;99.40
30473;DHT22;17263;48.160;11.452;2022-07-15T04:38:09;18.70;99.90
30473;DHT22;17263;48.160;11.452;2022-07-15T04:40:36;18.80;99.50
30473;DHT22;17263;48.160;11.452;2022-07-15T04:43:02;18.80;99.40
30473;DHT22;17263;48.160;11.452;2022-07-15T04:45:29;18.80;99.00
30473;DHT22;17263;48.160;11.452;2022-07-15T04:47:55;18.80;99.10
30473;DHT22;17263;48.160;11.452;2022-07-15T04:50:21;18.80;99.10
30473;DHT22;17263;48.160;11.452;2022-07-15T04:53:06;18.90;98.70
30473;DHT22;17263;48.160;11.452;2022-07-15T04:55:32;18.90;98.90
30473;DHT22;17263;48.160;11.452;2022-07-15T04:57:59;18.90;98.90
30473;DHT22;17263;48.160;11.452;2022-07-15T05:00:25;19.00;98.90
30473;DHT22;17263;48.160;11.452;2022-07-15T05:02:51;19.00;99.10
30473;DHT22;17263;48.160;11.452;2022-07-15T05:05:18;19.10;98.60
30473;DHT22;17263;48.160;11.452;2022-07-15T05:07:45;19.10;98.90
30473;DHT22;17263;48.160;11.452;2022-07-15T05:10:11;19.20;98.70
30473;DHT22;17263;48.160;11.452;2022-07-15T05:12:38;19.20;98.80
30473;DHT22;17263;48.160;11.452;2022-07-15T05:15:04;19.80;98.70
30473;DHT22;17263;48.160;11.452;2022-07-15T05:17:31;20.60;97.20
30473;DHT22;17263;48.160;11.452;2022-07-15T05:19:57;21.00;95.30
30473;DHT22;17263;48.160;11.452;2022-07-15T05:22:23;21.10;94.50
30473;DHT22;17263;48.160;11.452;2022-07-15T05:24:49;20.80;94.30
30473;DHT22;17263;48.160;11.452;2022-07-15T05:27:15;20.60;94.10
30473;DHT22;17263;48.160;11.452;2022-07-15T05:29:41;20.50;94.40
30473;DHT22;17263;48.160;11.452;2022-07-15T05:32:08;20.30;94.80
30473;DHT22;17263;48.160;11.452;2022-07-15T05:34:34;20.20;95.30
30473;DHT22;17263;48.160;11.452;2022-07-15T05:37:01;20.20;95.00
30473;DHT22;17263;48.160;11.452;2022-07-15T05:39:27;20.60;95.10
30473;DHT22;17263;48.160;11.452;2022-07-15T05:41:53;21.10;93.50
30473;DHT22;17263;48.160;11.452;2022-07-15T05:44:19;21.80;92.90
30473;DHT22;17263;48.160;11.452;2022-07-15T05:46:45;22.30;91.70
30473;DHT22;17263;48.160;11.452;2022-07-15T05:49:11;22.80;90.40
30473;DHT22;17263;48.160;11.452;2022-07-15T05:51:37;23.50;87.00
30473;DHT22;17263;48.160;11.452;2022-07-15T05:54:03;24.20;85.10
30473;DHT22;17263;48.160;11.452;2022-07-15T05:56:30;24.70;81.30
30473;DHT22;17263;48.160;11.452;2022-07-15T05:58:56;25.40;76.80
30473;DHT22;17263;48.160;11.452;2022-07-15T06:01:22;26.00;75.40
30473;DHT22;17263;48.160;11.452;2022-07-15T06:03:49;26.40;71.70
30473;DHT22;17263;48.160;11.452;2022-07-15T06:06:16;26.90;69.30
30473;DHT22;17263;48.160;11.452;2022-07-15T06:08:43;27.20;66.90
30473;DHT22;17263;48.160;11.452;2022-07-15T06:11:09;27.30;64.20
30473;DHT22;17263;48.160;11.452;2022-07-15T06:13:37;27.40;62.70
30473;DHT22;17263;48.160;11.452;2022-07-15T06:16:05;27.70;61.30
30473;DHT22;17263;48.160;11.452;2022-07-15T06:18:31;28.20;58.70
30473;DHT22;17263;48.160;11.452;2022-07-15T06:20:57;28.40;56.40
30473;DHT22;17263;48.160;11.452;2022-07-15T06:23:23;28.40;56.10
30473;DHT22;17263;48.160;11.452;2022-07-15T06:25:49;28.50;56.00
30473;DHT22;17263;48.160;11.452;2022-07-15T06:28:15;28.60;53.80
30473;DHT22;17263;48.160;11.452;2022-07-15T06:30:41;28.50;53.70
30473;DHT22;17263;48.160;11.452;2022-07-15T06:33:07;28.60;53.40
30473;DHT22;17263;48.160;11.452;2022-07-15T06:35:33;28.40;54.30
30473;DHT22;17263;48.160;11.452;2022-07-15T06:37:59;28.60;53.50
30473;DHT22;17263;48.160;11.452;2022-07-15T06:40:25;28.80;52.30
30473;DHT22;17263;48.160;11.452;2022-07-15T06:42:51;29.20;51.20
30473;DHT22;17263;48.160;11.452;2022-07-15T06:45:17;29.40;50.60
30473;DHT22;17263;48.160;11.452;2022-07-15T06:47:44;29.30;51.20
30473;DHT22;17263;48.160;11.452;2022-07-15T06:50:10;29.30;50.30
30473;DHT22;17263;48.160;11.452;2022-07-15T06:52:36;29.40;50.60
30473;DHT22;17263;48.160;11.452;2022-07-15T06:55:03;29.70;50.20
30473;DHT22;17263;48.160;11.452;2022-07-15T06:57:29;30.00;48.70
30473;DHT22;17263;48.160;11.452;2022-07-15T06:59:55;30.30;47.80
30473;DHT22;17263;48.160;11.452;2022-07-15T07:02:23;30.30;47.40
30473;DHT22;17263;48.160;11.452;2022-07-15T07:04:49;30.60;46.80
30473;DHT22;17263;48.160;11.452;2022-07-15T07:07:15;30.20;46.80
30473;DHT22;17263;48.160;11.452;2022-07-15T07:09:41;29.90;45.40
30473;DHT22;17263;48.160;11.452;2022-07-15T07:12:08;30.10;45.90
30473;DHT22;17263;48.160;11.452;2022-07-15T07:14:37;30.40;45.60
30473;DHT22;17263;48.160;11.452;2022-07-15T07:17:03;30.40;45.10
30473;DHT22;17263;48.160;11.452;2022-07-15T07:19:29;30.40;45.60
30473;DHT22;17263;48.160;11.452;2022-07-15T07:21:55;30.30;45.50
30473;DHT22;17263;48.160;11.452;2022-07-15T07:24:21;30.60;45.30
30473;DHT22;17263;48.160;11.452;2022-07-15T07:26:47;30.60;45.00
30473;DHT22;17263;48.160;11.452;2022-07-15T07:29:13;30.70;45.10
30473;DHT22;17263;48.160;11.452;2022-07-15T07:31:42;30.80;45.20
30473;DHT22;17263;48.160;11.452;2022-07-15T07:34:08;30.60;45.30
30473;DHT22;17263;48.160;11.452;2022-07-15T07:36:34;30.40;44.80
30473;DHT22;17263;48.160;11.452;2022-07-15T07:39:00;30.30;45.90
30473;DHT22;17263;48.160;11.452;2022-07-15T07:41:26;30.60;45.60
30473;DHT22;17263;48.160;11.452;2022-07-15T07:43:52;30.40;45.10
30473;DHT22;17263;48.160;11.452;2022-07-15T07:46:18;30.30;44.90
30473;DHT22;17263;48.160;11.452;2022-07-15T07:48:44;30.20;44.40
30473;DHT22;17263;48.160;11.452;2022-07-15T07:51:10;30.50;44.40
30473;DHT22;17263;48.160;11.452;2022-07-15T07:53:36;30.20;44.60
30473;DHT22;17263;48.160;11.452;2022-07-15T07:56:03;30.10;44.20
30473;DHT22;17263;48.160;11.452;2022-07-15T07:58:29;30.10;43.70
30473;DHT22;17263;48.160;11.452;2022-07-15T08:00:55;29.70;45.50
30473;DHT22;17263;48.160;11.452;2022-07-15T08:03:22;29.70;44.70
30473;DHT22;17263;48.160;11.452;2022-07-15T08:05:48;29.90;44.90
30473;DHT22;17263;48.160;11.452;2022-07-15T08:08:16;30.10;44.70
30473;DHT22;17263;48.160;11.452;2022-07-15T08:10:45;30.40;44.30
30473;DHT22;17263;48.160;11.452;2022-07-15T08:13:12;30.50;44.00
30473;DHT22;17263;48.160;11.452;2022-07-15T08:15:39;30.50;44.30
30473;DHT22;17263;48.160;11.452;2022-07-15T08:18:06;30.60;44.20
30473;DHT22;17263;48.160;11.452;2022-07-15T08:20:32;30.60;43.50
30473;DHT22;17263;48.160;11.452;2022-07-15T08:22:59;30.20;43.80
30473;DHT22;17263;48.160;11.452;2022-07-15T08:25:30;30.00;44.90
30473;DHT22;17263;48.160;11.452;2022-07-15T08:27:56;30.10;45.60
30473;DHT22;17263;48.160;11.452;2022-07-15T08:30:25;30.30;44.90
30473;DHT22;17263;48.160;11.452;2022-07-15T08:32:52;30.50;43.90
30473;DHT22;17263;48.160;11.452;2022-07-15T08:35:18;30.20;45.20
30473;DHT22;17263;48.160;11.452;2022-07-15T08:37:44;30.30;45.50
30473;DHT22;17263;48.160;11.452;2022-07-15T08:40:11;30.50;45.10
30473;DHT22;17263;48.160;11.452;2022-07-15T08:42:38;30.70;43.60
30473;DHT22;17263;48.160;11.452;2022-07-15T08:45:06;30.50;44.40
30473;DHT22;17263;48.160;11.452;2022-07-15T08:47:32;30.70;43.90
30473;DHT22;17263;48.160;11.452;2022-07-15T08:49:59;30.50;43.80
30473;DHT22;17263;48.160;11.452;2022-07-15T08:52:26;30.10;45.00
30473;DHT22;17263;48.160;11.452;2022-07-15T08:54:52;30.00;45.30
30473;DHT22;17263;48.160;11.452;2022-07-15T08:57:18;29.90;45.40
30473;DHT22;17263;48.160;11.452;2022-07-15T08:59:44;30.20;45.10
30473;DHT22;17263;48.160;11.452;2022-07-15T09:02:13;30.30;44.90
30473;DHT22;17263;48.160;11.452;2022-07-15T09:10:56;30.70;44.40
30473;DHT22;17263;48.160;11.452;2022-07-15T09:13:32;30.90;43.70
30473;DHT22;17263;48.160;11.452;2022-07-15T09:16:07;30.70;44.00
30473;DHT22;17263;48.160;11.452;2022-07-15T09:18:42;30.50;43.70
30473;DHT22;17263;48.160;11.452;2022-07-15T09:21:15;30.10;45.60
30473;DHT22;17263;48.160;11.452;2022-07-15T09:23:42;29.90;45.30
30473;DHT22;17263;48.160;11.452;2022-07-15T09:26:30;29.80;45.50
30473;DHT22;17263;48.160;11.452;2022-07-15T09:28:59;30.00;45.50
30473;DHT22;17263;48.160;11.452;2022-07-15T09:31:33;29.70;45.80
30473;DHT22;17263;48.160;11.452;2022-07-15T09:34:19;29.70;45.10
30473;DHT22;17263;48.160;11.452;2022-07-15T09:36:49;29.90;45.70
30473;DHT22;17263;48.160;11.452;2022-07-15T09:39:19;30.10;44.90
30473;DHT22;17263;48.160;11.452;2022-07-15T09:41:47;30.00;44.60
30473;DHT22;17263;48.160;11.452;2022-07-15T09:44:15;29.70;44.50
30473;DHT22;17263;48.160;11.452;2022-07-15T09:46:59;29.20;45.40
30473;DHT22;17263;48.160;11.452;2022-07-15T09:54:25;29.50;44.90
30473;DHT22;17263;48.160;11.452;2022-07-15T09:56:52;29.30;45.10
30473;DHT22;17263;48.160;11.452;2022-07-15T09:59:19;29.20;45.90
30473;DHT22;17263;48.160;11.452;2022-07-15T10:01:45;28.70;46.30
30473;DHT22;17263;48.160;11.452;2022-07-15T10:04:16;28.50;48.00
30473;DHT22;17263;48.160;11.452;2022-07-15T10:06:43;28.80;46.60
30473;DHT22;17263;48.160;11.452;2022-07-15T10:09:10;28.80;47.00
30473;DHT22;17263;48.160;11.452;2022-07-15T10:11:46;28.90;47.40
30473;DHT22;17263;48.160;11.452;2022-07-15T10:20:14;29.20;46.90
30473;DHT22;17263;48.160;11.452;2022-07-15T10:33:39;28.60;46.00
30473;DHT22;17263;48.160;11.452;2022-07-15T10:36:06;28.50;46.00
30473;DHT22;17263;48.160;11.452;2022-07-15T10:38:37;28.40;46.40
30473;DHT22;17263;48.160;11.452;2022-07-15T10:41:05;28.10;46.70
30473;DHT22;17263;48.160;11.452;2022-07-15T10:48:52;28.50;48.00
30473;DHT22;17263;48.160;11.452;2022-07-15T10:56:45;28.10;47.30
30473;DHT22;17263;48.160;11.452;2022-07-15T10:59:17;27.90;48.10
30473;DHT22;17263;48.160;11.452;2022-07-15T11:01:47;27.60;49.40
30473;DHT22;17263;48.160;11.452;2022-07-15T11:04:22;27.50;49.60
30473;DHT22;17263;48.160;11.452;2022-07-15T11:09:46;27.20;49.10
30473;DHT22;17263;48.160;11.452;2022-07-15T11:12:14;27.10;50.00
30473;DHT22;17263;48.160;11.452;2022-07-15T11:17:38;26.80;50.60
30473;DHT22;17263;48.160;11.452;2022-07-15T11:20:12;26.70;50.60
30473;DHT22;17263;48.160;11.452;2022-07-15T11:22:42;26.70;51.30
30473;DHT22;17263;48.160;11.452;2022-07-15T11:33:04;26.50;52.00
30473;DHT22;17263;48.160;11.452;2022-07-15T11:35:42;26.60;51.50
30473;DHT22;17263;48.160;11.452;2022-07-15T11:38:09;26.60;51.10
30473;DHT22;17263;48.160;11.452;2022-07-15T11:40:35;26.60;51.50
30473;DHT22;17263;48.160;11.452;2022-07-15T11:43:20;26.50;52.40
30473;DHT22;17263;48.160;11.452;2022-07-15T11:46:05;26.40;51.30
30473;DHT22;17263;48.160;11.452;2022-07-15T11:48:39;26.40;52.00
30473;DHT22;17263;48.160;11.452;2022-07-15T11:51:07;26.20;52.00
30473;DHT22;17263;48.160;11.452;2022-07-15T11:53:39;26.20;52.90
30473;DHT22;17263;48.160;11.452;2022-07-15T11:56:06;26.20;51.90
30473;DHT22;17263;48.160;11.452;2022-07-15T11:58:46;26.30;51.10
30473;DHT22;17263;48.160;11.452;2022-07-15T12:01:14;26.20;51.30
30473;DHT22;17263;48.160;11.452;2022-07-15T12:03:42;26.10;51.90
30473;DHT22;17263;48.160;11.452;2022-07-15T12:06:17;26.00;52.00
30473;DHT22;17263;48.160;11.452;2022-07-15T12:08:51;26.10;52.20
30473;DHT22;17263;48.160;11.452;2022-07-15T12:11:28;26.10;52.10
30473;DHT22;17263;48.160;11.452;2022-07-15T12:14:03;26.10;52.10
30473;DHT22;17263;48.160;11.452;2022-07-15T12:16:47;26.20;51.80
30473;DHT22;17263;48.160;11.452;2022-07-15T12:19:19;26.10;51.60
30473;DHT22;17263;48.160;11.452;2022-07-15T12:21:49;26.10;52.70
30473;DHT22;17263;48.160;11.452;2022-07-15T12:24:18;26.20;53.10
30473;DHT22;17263;48.160;11.452;2022-07-15T12:29:18;26.40;51.50
30473;DHT22;17263;48.160;11.452;2022-07-15T12:31:52;26.60;51.50
30473;DHT22;17263;48.160;11.452;2022-07-15T12:34:19;26.40;50.00
30473;DHT22;17263;48.160;11.452;2022-07-15T12:36:57;26.30;51.70
30473;DHT22;17263;48.160;11.452;2022-07-15T12:39:24;26.30;51.00
30473;DHT22;17263;48.160;11.452;2022-07-15T12:42:04;26.20;50.80
30473;DHT22;17263;48.160;11.452;2022-07-15T12:44:31;26.10;51.30
30473;DHT22;17263;48.160;11.452;2022-07-15T12:47:04;26.10;51.40
30473;DHT22;17263;48.160;11.452;2022-07-15T12:49:39;26.20;52.50
30473;DHT22;17263;48.160;11.452;2022-07-15T12:52:17;26.40;51.80
30473;DHT22;17263;48.160;11.452;2022-07-15T12:54:44;26.30;51.30
30473;DHT22;17263;48.160;11.452;2022-07-15T12:57:21;26.30;51.10
30473;DHT22;17263;48.160;11.452;2022-07-15T12:59:58;26.30;52.10
30473;DHT22;17263;48.160;11.452;2022-07-15T13:02:26;26.40;50.70
30473;DHT22;17263;48.160;11.452;2022-07-15T13:04:53;26.40;50.90
30473;DHT22;17263;48.160;11.452;2022-07-15T13:07:19;26.50;51.00
30473;DHT22;17263;48.160;11.452;2022-07-15T13:09:46;26.60;51.00
30473;DHT22;17263;48.160;11.452;2022-07-15T13:12:13;26.60;50.90
30473;DHT22;17263;48.160;11.452;2022-07-15T13:14:40;26.70;51.50
30473;DHT22;17263;48.160;11.452;2022-07-15T13:17:07;26.70;49.90
30473;DHT22;17263;48.160;11.452;2022-07-15T13:19:33;26.60;50.80
30473;DHT22;17263;48.160;11.452;2022-07-15T13:22:00;26.50;49.60
30473;DHT22;17263;48.160;11.452;2022-07-15T13:24:26;26.50;51.00
30473;DHT22;17263;48.160;11.452;2022-07-15T13:26:52;26.60;51.20
30473;DHT22;17263;48.160;11.452;2022-07-15T13:29:19;26.60;50.00
30473;DHT22;17263;48.160;11.452;2022-07-15T13:31:45;26.70;50.20
30473;DHT22;17263;48.160;11.452;2022-07-15T13:34:11;26.60;50.10
30473;DHT22;17263;48.160;11.452;2022-07-15T13:36:37;26.60;49.70
30473;DHT22;17263;48.160;11.452;2022-07-15T13:39:04;26.50;50.20
30473;DHT22;17263;48.160;11.452;2022-07-15T13:41:30;26.30;51.10
30473;DHT22;17263;48.160;11.452;2022-07-15T13:43:57;26.20;51.40
30473;DHT22;17263;48.160;11.452;2022-07-15T13:46:23;26.00;51.10
30473;DHT22;17263;48.160;11.452;2022-07-15T13:48:49;25.90;52.10
30473;DHT22;17263;48.160;11.452;2022-07-15T13:51:15;26.00;51.20
30473;DHT22;17263;48.160;11.452;2022-07-15T13:53:55;26.10;51.80
30473;DHT22;17263;48.160;11.452;2022-07-15T13:56:21;26.20;50.50
30473;DHT22;17263;48.160;11.452;2022-07-15T13:58:47;26.20;50.20
30473;DHT22;17263;48.160;11.452;2022-07-15T14:01:15;26.30;51.00
30473;DHT22;17263;48.160;11.452;2022-07-15T14:03:42;26.40;50.00
30473;DHT22;17263;48.160;11.452;2022-07-15T14:06:08;26.40;49.80
30473;DHT22;17263;48.160;11.452;2022-07-15T14:08:34;26.40;49.50
30473;DHT22;17263;48.160;11.452;2022-07-15T14:11:00;26.50;49.80
30473;DHT22;17263;48.160;11.452;2022-07-15T14:13:27;26.60;49.50
30473;DHT22;17263;48.160;11.452;2022-07-15T14:15:53;26.60;49.70
30473;DHT22;17263;48.160;11.452;2022-07-15T14:18:19;26.60;49.90
30473;DHT22;17263;48.160;11.452;2022-07-15T14:21:05;26.70;49.20
30473;DHT22;17263;48.160;11.452;2022-07-15T14:23:31;26.70;49.50
30473;DHT22;17263;48.160;11.452;2022-07-15T14:25:57;26.70;49.90
30473;DHT22;17263;48.160;11.452;2022-07-15T14:28:23;26.70;50.10
30473;DHT22;17263;48.160;11.452;2022-07-15T14:30:49;26.60;49.10
30473;DHT22;17263;48.160;11.452;2022-07-15T14:33:15;26.60;48.90
30473;DHT22;17263;48.160;11.452;2022-07-15T14:35:42;26.50;49.40
30473;DHT22;17263;48.160;11.452;2022-07-15T14:38:08;26.60;49.50
30473;DHT22;17263;48.160;11.452;2022-07-15T14:40:34;26.50;49.00
30473;DHT22;17263;48.160;11.452;2022-07-15T14:43:00;26.50;49.50
30473;DHT22;17263;48.160;11.452;2022-07-15T14:45:27;26.50;49.60
30473;DHT22;17263;48.160;11.452;2022-07-15T14:47:53;26.40;49.50
30473;DHT22;17263;48.160;11.452;2022-07-15T14:50:19;26.40;50.00
30473;DHT22;17263;48.160;11.452;2022-07-15T14:52:45;26.40;49.80
30473;DHT22;17263;48.160;11.452;2022-07-15T14:55:11;26.50;48.20
30473;DHT22;17263;48.160;11.452;2022-07-15T14:57:37;26.40;48.50
30473;DHT22;17263;48.160;11.452;2022-07-15T15:00:04;26.40;48.70
30473;DHT22;17263;48.160;11.452;2022-07-15T15:02:30;26.40;49.30
30473;DHT22;17263;48.160;11.452;2022-07-15T15:04:56;26.40;49.00
30473;DHT22;17263;48.160;11.452;2022-07-15T15:07:22;26.40;49.10
30473;DHT22;17263;48.160;11.452;2022-07-15T15:09:48;26.50;49.90
30473;DHT22;17263;48.160;11.452;2022-07-15T15:12:14;26.70;49.70
30473;DHT22;17263;48.160;11.452;2022-07-15T15:14:40;26.80;48.70
30473;DHT22;17263;48.160;11.452;2022-07-15T15:17:06;26.80;48.80
30473;DHT22;17263;48.160;11.452;2022-07-15T15:19:33;26.80;49.10
30473;DHT22;17263;48.160;11.452;2022-07-15T15:22:00;26.80;48.70
30473;DHT22;17263;48.160;11.452;2022-07-15T15:24:26;26.70;47.60
30473;DHT22;17263;48.160;11.452;2022-07-15T15:26:52;26.60;47.90
30473;DHT22;17263;48.160;11.452;2022-07-15T15:29:19;26.50;48.20
30473;DHT22;17263;48.160;11.452;2022-07-15T15:31:45;26.30;48.60
30473;DHT22;17263;48.160;11.452;2022-07-15T15:34:12;26.20;49.40
30473;DHT22;17263;48.160;11.452;2022-07-15T15:36:38;26.10;49.10
30473;DHT22;17263;48.160;11.452;2022-07-15T15:39:04;26.00;49.90
30473;DHT22;17263;48.160;11.452;2022-07-15T15:41:30;26.00;50.20
30473;DHT22;17263;48.160;11.452;2022-07-15T15:43:56;26.10;50.90
30473;DHT22;17263;48.160;11.452;2022-07-15T15:46:22;26.10;49.30
30473;DHT22;17263;48.160;11.452;2022-07-15T15:48:49;26.00;49.70
30473;DHT22;17263;48.160;11.452;2022-07-15T15:51:15;26.00;49.80
30473;DHT22;17263;48.160;11.452;2022-07-15T15:53:41;26.10;49.60
30473;DHT22;17263;48.160;11.452;2022-07-15T15:56:07;26.10;48.80
30473;DHT22;17263;48.160;11.452;2022-07-15T15:58:33;26.20;50.00
30473;DHT22;17263;48.160;11.452;2022-07-15T16:00:59;26.10;49.40
30473;DHT22;17263;48.160;11.452;2022-07-15T16:03:26;26.20;49.30
30473;DHT22;17263;48.160;11.452;2022-07-15T16:05:52;26.20;48.90
30473;DHT22;17263;48.160;11.452;2022-07-15T16:08:18;26.20;49.40
30473;DHT22;17263;48.160;11.452;2022-07-15T16:10:44;26.20;49.20
30473;DHT22;17263;48.160;11.452;2022-07-15T16:13:10;26.20;48.70